createdAt,value
2018-05-31T00:02:20.811Z,95429.13
2018-05-31T00:04:48.804Z,95431.11
2018-05-31T00:07:16.844Z,95421.43
2018-05-31T00:09:44.830Z,95415.77
2018-05-31T00:12:12.834Z,95413.54
2018-05-31T00:14:40.909Z,95419.33
2018-05-31T00:17:09.194Z,95415.05
2018-05-31T00:19:37.174Z,95419.72
2018-05-31T00:22:05.178Z,95418.79
2018-05-31T00:24:33.159Z,95422.61
2018-05-31T00:27:01.153Z,95420.86
2018-05-31T00:29:29.233Z,95421.58
2018-05-31T00:31:57.186Z,95410.58
2018-05-31T00:34:25.213Z,95414.22
2018-05-31T00:36:53.242Z,95408.19
2018-05-31T00:39:21.254Z,95407.69
2018-05-31T00:41:49.356Z,95400.44
2018-05-31T00:44:17.479Z,95406.69
2018-05-31T00:46:45.542Z,95409.92
2018-05-31T00:49:13.548Z,95409.58
2018-05-31T00:51:41.638Z,95412.50
2018-05-31T00:54:09.638Z,95407.13
2018-05-31T00:56:37.694Z,95409.70
2018-05-31T00:59:05.651Z,95405.78
2018-05-31T01:01:33.693Z,95408.45
2018-05-31T01:04:01.721Z,95407.83
2018-05-31T01:06:29.745Z,95409.72
2018-05-31T01:08:57.803Z,95406.66
2018-05-31T01:11:25.874Z,95408.27
2018-05-31T01:13:53.906Z,95405.72
2018-05-31T01:16:21.923Z,95405.25
2018-05-31T01:18:50.384Z,95401.30
2018-05-31T01:21:18.393Z,95397.69
2018-05-31T01:23:46.375Z,95397.09
2018-05-31T01:26:14.477Z,95401.45
2018-05-31T01:28:42.495Z,95405.06
2018-05-31T01:31:10.550Z,95339.94
2018-05-31T01:33:38.560Z,95411.20
2018-05-31T01:36:06.596Z,95410.13
2018-05-31T01:38:34.694Z,95408.08
2018-05-31T01:41:02.753Z,95405.95
2018-05-31T01:43:30.734Z,95402.30
2018-05-31T01:45:58.740Z,95407.39
2018-05-31T01:48:26.826Z,95412.99
2018-05-31T01:50:54.857Z,95415.80
2018-05-31T01:53:22.893Z,95406.16
2018-05-31T01:55:50.887Z,95401.70
2018-05-31T01:58:18.866Z,95406.59
2018-05-31T02:00:46.899Z,95407.09
2018-05-31T02:03:14.889Z,95408.30
2018-05-31T02:05:42.902Z,95403.48
2018-05-31T02:08:10.922Z,95406.45
2018-05-31T02:10:38.966Z,95409.65
2018-05-31T02:13:07.028Z,95406.69
2018-05-31T02:15:35.102Z,95408.20
2018-05-31T02:18:03.154Z,95408.33
2018-05-31T02:20:31.648Z,95401.89
2018-05-31T02:22:59.655Z,95408.71
2018-05-31T02:25:27.722Z,95410.18
2018-05-31T02:27:55.756Z,95411.01
2018-05-31T02:30:23.744Z,95411.81
2018-05-31T02:32:51.790Z,95408.80
2018-05-31T02:35:19.713Z,95409.77
2018-05-31T02:37:47.770Z,95413.69
2018-05-31T02:40:15.943Z,95415.46
2018-05-31T02:42:43.929Z,95422.10
2018-05-31T02:45:12.030Z,95425.58
2018-05-31T02:47:40.124Z,95422.23
2018-05-31T02:50:08.139Z,95429.28
2018-05-31T02:52:36.242Z,95429.73
2018-05-31T02:55:04.269Z,95435.87
2018-05-31T02:57:32.379Z,95434.13
2018-05-31T03:00:00.449Z,95425.70
2018-05-31T03:02:28.466Z,95446.64
2018-05-31T03:04:56.551Z,95446.31
2018-05-31T03:07:24.616Z,95449.61
2018-05-31T03:09:52.650Z,95444.20
2018-05-31T03:12:20.668Z,95445.81
2018-05-31T03:14:48.694Z,95445.68
2018-05-31T03:17:16.727Z,95446.36
2018-05-31T03:19:44.751Z,95449.09
2018-05-31T03:22:13.213Z,95456.67
2018-05-31T03:24:41.235Z,95454.48
2018-05-31T03:27:09.313Z,95454.92
2018-05-31T03:29:37.314Z,95460.45
2018-05-31T03:32:05.316Z,95461.31
2018-05-31T03:34:33.327Z,95466.89
2018-05-31T03:37:01.351Z,95468.72
2018-05-31T03:39:29.343Z,95468.09
2018-05-31T03:41:57.321Z,95466.91
2018-05-31T03:44:25.366Z,95470.22
2018-05-31T03:46:53.363Z,95461.72
2018-05-31T03:49:21.839Z,95472.27
2018-05-31T03:51:50.315Z,95451.45
2018-05-31T03:54:18.978Z,95464.98
2018-05-31T03:56:46.976Z,95462.91
2018-05-31T03:59:15.745Z,95467.47
2018-05-31T04:01:44.285Z,95464.36
2018-05-31T04:04:12.709Z,95464.88
2018-05-31T04:06:41.388Z,95466.34
2018-05-31T04:09:09.964Z,95469.66
2018-05-31T04:11:39.471Z,95472.67
2018-05-31T04:14:08.157Z,95464.63
2018-05-31T04:16:36.659Z,95472.84
2018-05-31T04:19:05.221Z,95468.42
2018-05-31T04:21:33.818Z,95467.89
2018-05-31T04:24:02.479Z,95471.80
2018-05-31T04:26:30.891Z,95473.48
2018-05-31T04:28:59.467Z,95471.70
2018-05-31T04:31:28.138Z,95470.86
2018-05-31T04:33:56.430Z,95471.10
2018-05-31T04:36:24.996Z,95474.00
2018-05-31T04:38:53.664Z,95475.73
2018-05-31T04:41:21.970Z,95476.06
2018-05-31T04:43:50.769Z,95476.52
2018-05-31T04:46:19.339Z,95469.94
2018-05-31T04:48:48.223Z,95468.78
2018-05-31T04:51:17.010Z,95466.47
2018-05-31T04:53:45.838Z,95464.75
2018-05-31T04:56:14.210Z,95478.25
2018-05-31T04:58:42.728Z,95478.66
2018-05-31T05:01:11.235Z,95478.99
2018-05-31T05:03:39.881Z,95477.88
2018-05-31T05:06:08.504Z,95474.83
2018-05-31T05:08:36.781Z,95473.55
2018-05-31T05:11:05.763Z,95470.52
2018-05-31T05:13:34.347Z,95472.84
2018-05-31T05:16:02.755Z,95469.92
2018-05-31T05:18:31.204Z,95481.34
2018-05-31T05:20:59.990Z,95476.92
2018-05-31T05:23:28.437Z,95475.30
2018-05-31T05:25:57.382Z,95470.95
2018-05-31T05:28:25.691Z,95469.30
2018-05-31T05:30:54.141Z,95473.47
2018-05-31T05:33:22.601Z,95479.39
2018-05-31T05:35:50.642Z,95476.52
2018-05-31T05:38:18.735Z,95472.73
2018-05-31T05:40:46.762Z,95466.69
2018-05-31T05:43:14.827Z,95468.28
2018-05-31T05:45:42.858Z,95466.52
2018-05-31T05:48:10.888Z,95465.58
2018-05-31T05:50:38.940Z,95466.92
2018-05-31T05:53:07.009Z,95464.59
2018-05-31T05:55:35.060Z,95469.76
2018-05-31T05:58:03.106Z,95471.40
2018-05-31T06:00:31.206Z,95465.20
2018-05-31T06:02:59.234Z,95467.73
2018-05-31T06:05:27.285Z,95472.24
2018-05-31T06:07:55.347Z,95468.52
2018-05-31T06:10:23.397Z,95466.78
2018-05-31T06:12:51.460Z,95466.18
2018-05-31T06:15:19.501Z,95468.55
2018-05-31T06:17:47.580Z,95462.84
2018-05-31T06:20:15.642Z,95458.46
2018-05-31T06:22:43.691Z,95463.55
2018-05-31T06:25:11.835Z,95461.54
2018-05-31T06:27:40.337Z,95460.59
2018-05-31T06:30:08.434Z,95443.55
2018-05-31T06:32:36.634Z,95457.99
2018-05-31T06:35:04.759Z,95450.89
2018-05-31T06:37:32.919Z,95455.26
2018-05-31T06:40:01.089Z,95452.94
2018-05-31T06:42:29.163Z,95452.09
2018-05-31T06:44:57.183Z,95458.63
2018-05-31T06:47:25.302Z,95450.73
2018-05-31T06:49:53.785Z,95453.74
2018-05-31T06:52:21.812Z,95455.29
2018-05-31T06:54:49.863Z,95444.59
2018-05-31T06:57:17.932Z,95447.28
2018-05-31T06:59:45.978Z,95450.30
2018-05-31T07:02:14.013Z,95444.19
2018-05-31T07:04:42.003Z,95440.66
2018-05-31T07:07:10.070Z,95445.61
2018-05-31T07:09:38.096Z,95443.31
2018-05-31T07:12:06.220Z,95414.59
2018-05-31T07:14:34.263Z,95436.42
2018-05-31T07:17:02.284Z,95439.96
2018-05-31T07:19:30.325Z,95435.54
2018-05-31T07:21:58.310Z,95431.76
2018-05-31T07:24:26.333Z,95431.94
2018-05-31T07:26:54.361Z,95424.86
2018-05-31T07:29:22.871Z,95415.11
2018-05-31T07:31:50.898Z,95410.22
2018-05-31T07:34:18.897Z,95413.09
2018-05-31T07:36:46.906Z,95411.56
2018-05-31T07:39:14.898Z,95407.77
2018-05-31T07:41:42.881Z,95407.84
2018-05-31T07:44:10.926Z,95410.28
2018-05-31T07:46:39.013Z,95407.14
2018-05-31T07:49:07.029Z,95400.97
2018-05-31T07:51:35.031Z,95399.47
2018-05-31T07:54:03.108Z,95400.41
2018-05-31T07:56:31.115Z,95402.02
2018-05-31T07:58:59.121Z,95396.89
2018-05-31T08:01:27.156Z,95401.02
2018-05-31T08:03:55.172Z,95399.28
2018-05-31T08:06:23.246Z,95403.89
2018-05-31T08:08:51.209Z,95387.84
2018-05-31T08:11:19.359Z,95393.71
2018-05-31T08:13:47.745Z,95391.44
2018-05-31T08:16:15.777Z,95389.56
2018-05-31T08:18:43.788Z,95383.61
2018-05-31T08:21:11.869Z,95379.12
2018-05-31T08:23:39.936Z,95378.58
2018-05-31T08:26:07.960Z,95374.95
2018-05-31T08:28:35.951Z,95366.89
2018-05-31T08:31:04.223Z,95366.45
2018-05-31T08:33:32.214Z,95359.12
2018-05-31T08:36:00.228Z,95355.53
2018-05-31T08:38:28.232Z,95357.64
2018-05-31T08:40:56.248Z,95354.53
2018-05-31T08:43:24.308Z,95349.08
2018-05-31T08:45:52.338Z,95347.73
2018-05-31T08:48:20.396Z,95355.20
2018-05-31T08:50:48.422Z,95342.27
2018-05-31T08:53:16.441Z,95346.16
2018-05-31T08:55:44.455Z,95266.22
2018-05-31T08:58:12.435Z,95328.23
2018-05-31T09:00:40.467Z,95331.71
2018-05-31T09:03:09.117Z,95324.72
2018-05-31T09:05:38.105Z,95325.62
2018-05-31T09:08:06.512Z,95322.73
2018-05-31T09:10:34.963Z,95318.36
2018-05-31T09:13:03.868Z,95309.98
2018-05-31T09:15:32.473Z,95313.31
2018-05-31T09:18:00.538Z,95316.23
2018-05-31T09:20:28.582Z,95308.80
2018-05-31T09:22:56.515Z,95299.78
2018-05-31T09:25:24.489Z,95302.58
2018-05-31T09:27:52.539Z,95294.73
2018-05-31T09:30:20.529Z,95295.25
2018-05-31T09:32:48.887Z,95292.64
2018-05-31T09:35:16.945Z,95293.06
2018-05-31T09:37:45.035Z,95288.40
2018-05-31T09:40:13.011Z,95284.97
2018-05-31T09:42:41.029Z,95288.51
2018-05-31T09:45:09.075Z,95280.92
2018-05-31T09:47:37.126Z,95285.36
2018-05-31T09:50:05.122Z,95284.24
2018-05-31T09:52:33.243Z,95277.35
2018-05-31T09:55:01.335Z,95274.55
2018-05-31T09:57:29.347Z,95260.97
2018-05-31T09:59:57.378Z,95259.38
2018-05-31T10:02:25.391Z,95251.49
2018-05-31T10:04:53.414Z,95250.70
2018-05-31T10:07:21.547Z,95253.09
2018-05-31T10:09:49.525Z,95250.43
2018-05-31T10:12:17.670Z,95245.71
2018-05-31T10:14:45.729Z,95244.17
2018-05-31T10:17:13.789Z,95236.54
2018-05-31T10:19:41.794Z,95239.72
2018-05-31T10:22:09.830Z,95235.92
2018-05-31T10:24:37.846Z,95236.36
2018-05-31T10:27:05.896Z,95230.46
2018-05-31T10:29:33.895Z,95227.27
2018-05-31T10:32:01.933Z,95218.24
2018-05-31T10:34:30.488Z,95216.13
2018-05-31T10:36:59.081Z,95218.06
2018-05-31T10:39:27.552Z,95201.56
2018-05-31T10:41:56.038Z,95213.69
2018-05-31T10:44:24.567Z,95209.36
2018-05-31T10:46:53.307Z,95213.96
2018-05-31T10:49:21.754Z,95199.47
2018-05-31T10:51:50.067Z,95204.66
2018-05-31T10:54:18.562Z,95207.23
2018-05-31T10:56:47.136Z,95200.76
2018-05-31T10:59:15.653Z,95107.98
2018-05-31T11:01:44.301Z,95199.17
2018-05-31T11:04:12.816Z,95195.48
2018-05-31T11:06:41.425Z,95194.76
2018-05-31T11:09:10.057Z,95194.05
2018-05-31T11:11:38.378Z,95196.49
2018-05-31T11:14:07.125Z,95195.31
2018-05-31T11:16:35.790Z,95194.74
2018-05-31T11:19:04.283Z,95189.80
2018-05-31T11:21:32.675Z,95188.39
2018-05-31T11:24:01.329Z,95183.74
2018-05-31T11:26:30.224Z,95176.55
2018-05-31T11:28:59.012Z,95176.73
2018-05-31T11:31:27.869Z,95176.69
2018-05-31T11:33:56.186Z,95175.14
2018-05-31T11:36:25.085Z,95173.58
2018-05-31T11:38:53.645Z,95173.63
2018-05-31T11:41:22.096Z,95168.66
2018-05-31T11:43:50.732Z,95165.23
2018-05-31T11:46:19.402Z,95156.28
2018-05-31T11:48:48.078Z,95156.16
2018-05-31T11:51:16.409Z,95154.89
2018-05-31T11:53:44.938Z,95149.27
2018-05-31T11:56:13.369Z,95144.45
2018-05-31T11:58:41.914Z,95143.06
2018-05-31T12:01:10.581Z,95144.11
2018-05-31T12:03:39.160Z,95139.48
2018-05-31T12:06:07.550Z,95140.03
2018-05-31T12:08:36.132Z,95131.22
2018-05-31T12:11:04.710Z,95127.01
2018-05-31T12:13:33.295Z,95125.26
2018-05-31T12:16:01.687Z,95127.84
2018-05-31T12:18:30.355Z,95111.97
2018-05-31T12:20:58.701Z,95123.72
2018-05-31T12:23:27.453Z,95123.01
2018-05-31T12:25:55.913Z,95123.23
2018-05-31T12:28:24.408Z,95127.48
2018-05-31T12:30:53.271Z,95119.81
2018-05-31T12:33:22.001Z,95130.53
2018-05-31T12:35:50.683Z,95123.48
2018-05-31T12:38:19.007Z,95124.68
2018-05-31T12:40:47.514Z,95118.83
2018-05-31T12:43:16.386Z,95114.33
2018-05-31T12:45:45.141Z,95103.63
2018-05-31T12:48:13.557Z,95106.02
2018-05-31T12:50:42.037Z,95077.14
2018-05-31T12:53:10.614Z,95095.98
2018-05-31T12:55:39.312Z,95097.41
2018-05-31T12:58:07.998Z,95088.01
2018-05-31T13:00:36.481Z,95095.73
2018-05-31T13:03:04.945Z,95092.43
2018-05-31T13:05:33.543Z,95083.98
2018-05-31T13:08:02.139Z,95082.55
2018-05-31T13:10:30.639Z,95074.50
2018-05-31T13:12:59.172Z,95082.56
2018-05-31T13:15:27.953Z,95074.20
2018-05-31T13:17:56.340Z,95076.92
2018-05-31T13:20:25.038Z,95070.56
2018-05-31T13:22:53.718Z,95068.61
2018-05-31T13:25:22.393Z,95064.41
2018-05-31T13:27:50.893Z,95065.55
2018-05-31T13:30:19.453Z,95059.08
2018-05-31T13:32:47.952Z,95062.10
2018-05-31T13:35:16.624Z,95058.18
2018-05-31T13:37:45.219Z,95054.97
2018-05-31T13:40:13.858Z,95056.59
2018-05-31T13:42:42.373Z,95050.67
2018-05-31T13:45:10.949Z,95049.69
2018-05-31T13:47:38.930Z,95043.39
2018-05-31T13:50:07.019Z,95048.09
2018-05-31T13:52:35.103Z,95048.84
2018-05-31T13:55:03.134Z,95052.53
2018-05-31T13:57:31.162Z,95050.06
2018-05-31T13:59:59.153Z,95043.84
2018-05-31T14:02:27.824Z,95043.30
2018-05-31T14:04:56.363Z,95037.34
2018-05-31T14:07:25.062Z,95037.97
2018-05-31T14:09:53.701Z,95035.10
2018-05-31T14:12:22.202Z,95032.51
2018-05-31T14:14:50.774Z,95024.77
2018-05-31T14:17:19.256Z,95030.06
2018-05-31T14:19:47.845Z,95009.79
2018-05-31T14:22:16.215Z,95020.17
2018-05-31T14:24:44.589Z,95022.69
2018-05-31T14:27:13.176Z,95018.28
2018-05-31T14:29:41.725Z,95010.53
2018-05-31T14:32:10.254Z,95006.66
2018-05-31T14:34:39.025Z,95007.19
2018-05-31T14:37:07.340Z,95003.70
2018-05-31T14:39:35.882Z,95003.73
2018-05-31T14:42:04.851Z,95003.03
2018-05-31T14:44:33.470Z,94997.05
2018-05-31T14:47:01.967Z,94992.94
2018-05-31T14:49:30.926Z,94988.00
2018-05-31T14:51:59.681Z,94985.47
2018-05-31T14:54:28.114Z,94977.52
2018-05-31T14:56:56.780Z,94989.03
2018-05-31T14:59:25.175Z,94986.41
2018-05-31T15:01:53.813Z,94983.39
2018-05-31T15:04:22.311Z,94954.17
2018-05-31T15:06:50.832Z,94977.76
2018-05-31T15:09:19.339Z,94974.56
2018-05-31T15:11:47.982Z,94978.85
2018-05-31T15:14:16.108Z,94975.76
2018-05-31T15:16:44.372Z,94977.39
2018-05-31T15:19:13.312Z,94976.77
2018-05-31T15:21:41.988Z,94977.55
2018-05-31T15:24:10.450Z,94972.43
2018-05-31T15:26:39.150Z,94973.22
2018-05-31T15:29:07.749Z,94970.95
2018-05-31T15:31:36.241Z,94967.58
2018-05-31T15:34:04.798Z,94969.80
2018-05-31T15:36:33.195Z,94972.92
2018-05-31T15:39:01.763Z,94973.42
2018-05-31T15:41:30.455Z,94970.98
2018-05-31T15:43:59.243Z,94968.59
2018-05-31T15:46:27.737Z,94967.83
2018-05-31T15:48:56.502Z,94971.42
2018-05-31T15:51:24.906Z,94976.43
2018-05-31T15:53:52.949Z,94987.92
2018-05-31T15:56:21.444Z,94992.98
2018-05-31T15:58:50.539Z,94998.75
2018-05-31T16:01:18.949Z,95002.69
2018-05-31T16:03:46.980Z,94999.73
2018-05-31T16:06:15.020Z,95002.41
2018-05-31T16:08:43.188Z,95002.13
2018-05-31T16:11:11.243Z,95005.50
2018-05-31T16:13:39.582Z,94957.91
2018-05-31T16:16:08.360Z,95014.52
2018-05-31T16:18:37.350Z,95005.83
2018-05-31T16:21:06.020Z,95018.46
2018-05-31T16:23:34.476Z,95019.62
2018-05-31T16:26:02.990Z,95021.19
2018-05-31T16:28:31.863Z,95027.82
2018-05-31T16:31:00.331Z,95039.31
2018-05-31T16:33:28.839Z,94971.70
2018-05-31T16:35:57.419Z,95036.31
2018-05-31T16:38:26.175Z,95045.80
2018-05-31T16:40:54.692Z,95048.48
2018-05-31T16:43:23.312Z,95049.28
2018-05-31T16:45:52.365Z,95051.22
2018-05-31T16:48:20.953Z,95062.27
2018-05-31T16:50:49.450Z,95064.48
2018-05-31T16:53:18.015Z,95073.02
2018-05-31T16:55:46.521Z,95081.17
2018-05-31T16:58:15.510Z,95085.53
2018-05-31T17:00:43.597Z,95090.39
2018-05-31T17:03:11.618Z,95100.58
2018-05-31T17:05:39.634Z,95103.85
2018-05-31T17:08:07.631Z,95109.91
2018-05-31T17:10:35.719Z,95108.27
2018-05-31T17:13:03.712Z,95108.14
2018-05-31T17:15:31.753Z,95105.23
2018-05-31T17:17:59.784Z,95113.19
2018-05-31T17:20:27.827Z,95125.16
2018-05-31T17:22:55.879Z,95125.85
2018-05-31T17:25:23.916Z,95130.30
2018-05-31T17:27:51.962Z,95134.21
2018-05-31T17:30:19.999Z,95138.71
2018-05-31T17:32:48.004Z,95133.78
2018-05-31T17:35:16.090Z,95136.38
2018-05-31T17:37:44.091Z,95146.44
2018-05-31T17:40:12.103Z,95152.71
2018-05-31T17:42:40.148Z,95154.18
2018-05-31T17:45:08.235Z,95125.82
2018-05-31T17:47:36.617Z,95157.84
2018-05-31T17:50:04.590Z,95172.44
2018-05-31T17:52:32.639Z,95173.51
2018-05-31T17:55:00.697Z,95177.81
2018-05-31T17:57:28.682Z,95178.81
2018-05-31T17:59:56.661Z,95181.22
2018-05-31T18:02:24.681Z,95182.53
2018-05-31T18:04:52.763Z,95180.74
2018-05-31T18:07:20.769Z,95190.87
2018-05-31T18:09:48.824Z,95202.23
2018-05-31T18:12:16.841Z,95206.47
2018-05-31T18:14:44.906Z,95208.67
2018-05-31T18:17:12.955Z,95208.86
2018-05-31T18:19:41.013Z,95221.17
2018-05-31T18:22:09.040Z,95223.32
2018-05-31T18:24:37.071Z,95227.83
2018-05-31T18:27:05.128Z,95228.70
2018-05-31T18:29:33.171Z,95233.62
2018-05-31T18:32:01.208Z,95233.40
2018-05-31T18:34:29.216Z,95242.94
2018-05-31T18:36:57.224Z,95247.37
2018-05-31T18:39:25.310Z,95256.19
2018-05-31T18:41:53.371Z,95261.31
2018-05-31T18:44:21.435Z,95265.56
2018-05-31T18:46:49.557Z,95268.25
2018-05-31T18:49:17.946Z,95271.12
2018-05-31T18:51:46.019Z,95276.13
2018-05-31T18:54:14.139Z,95289.30
2018-05-31T18:56:42.125Z,95290.28
2018-05-31T18:59:10.238Z,95275.59
2018-05-31T19:01:38.490Z,95296.67
2018-05-31T19:04:06.658Z,95303.02
2018-05-31T19:06:34.712Z,95303.96
2018-05-31T19:09:02.716Z,95314.05
2018-05-31T19:11:30.888Z,95313.84
2018-05-31T19:13:59.158Z,95322.32
2018-05-31T19:16:27.224Z,95326.43
2018-05-31T19:19:00.928Z,95323.68
2018-05-31T19:21:28.916Z,95329.70
2018-05-31T19:23:57.088Z,95332.55
2018-05-31T19:26:25.208Z,95333.98
2018-05-31T19:28:53.313Z,95337.14
2018-05-31T19:31:21.363Z,95343.56
2018-05-31T19:33:49.508Z,95345.42
2018-05-31T19:36:23.246Z,95351.51
2018-05-31T19:38:51.329Z,95351.29
2018-05-31T19:41:19.484Z,95352.61
2018-05-31T19:43:53.045Z,95353.69
2018-05-31T19:46:21.113Z,95355.02
2018-05-31T19:48:49.228Z,95363.03
2018-05-31T19:54:25.777Z,95362.50
2018-05-31T19:56:53.785Z,95353.63
2018-05-31T19:59:27.381Z,95342.78
2018-05-31T20:02:01.916Z,95360.00
2018-05-31T20:04:30.033Z,95365.25
2018-05-31T20:06:58.165Z,95373.58
2018-05-31T20:09:26.385Z,95380.06
2018-05-31T20:11:54.549Z,95377.66
2018-05-31T20:14:22.686Z,95375.75
2018-05-31T20:16:50.749Z,95377.87
2018-05-31T20:19:19.291Z,95380.44
2018-05-31T20:21:47.670Z,95378.29
2018-05-31T20:24:16.523Z,95386.39
2018-05-31T20:26:45.446Z,95384.09
2018-05-31T20:29:13.611Z,95385.53
2018-05-31T20:31:41.655Z,95393.80
2018-05-31T20:34:10.244Z,95398.11
2018-05-31T20:36:38.913Z,95401.61
2018-05-31T20:39:07.325Z,95403.00
2018-05-31T20:41:35.803Z,95402.60
2018-05-31T20:44:04.657Z,95406.73
2018-05-31T20:46:32.680Z,95402.12
2018-05-31T20:49:00.780Z,95403.59
2018-05-31T20:51:28.738Z,95404.66
2018-05-31T20:53:57.173Z,95409.14
2018-05-31T20:56:25.162Z,95410.16
2018-05-31T20:58:53.218Z,95411.70
2018-05-31T21:01:21.199Z,95408.34
2018-05-31T21:03:49.214Z,95414.25
2018-05-31T21:06:17.326Z,95415.15
2018-05-31T21:08:45.300Z,95415.89
2018-05-31T21:11:13.326Z,95413.03
2018-05-31T21:13:41.366Z,95421.56
2018-05-31T21:16:09.413Z,95423.98
2018-05-31T21:18:37.454Z,95418.04
2018-05-31T21:21:05.459Z,95423.58
2018-05-31T21:23:33.472Z,95421.08
2018-05-31T21:26:01.532Z,95431.19
2018-05-31T21:28:29.634Z,95420.67
2018-05-31T21:30:57.688Z,95421.48
2018-05-31T21:33:25.719Z,95419.97
2018-05-31T21:35:53.799Z,95422.27
2018-05-31T21:38:21.851Z,95421.24
2018-05-31T21:40:49.887Z,95433.78
2018-05-31T21:43:17.891Z,95429.59
2018-05-31T21:45:45.925Z,95430.05
2018-05-31T21:48:13.948Z,95430.88
2018-05-31T21:50:41.983Z,95430.42
2018-05-31T21:53:10.032Z,95424.28
2018-05-31T21:55:38.536Z,95420.94
2018-05-31T21:58:06.587Z,95423.81
2018-05-31T22:00:41.222Z,95426.30
2018-05-31T22:03:09.267Z,95426.30
2018-05-31T22:05:37.455Z,95430.80
2018-05-31T22:08:05.528Z,95424.47
2018-05-31T22:10:34.597Z,95431.39
2018-05-31T22:13:03.266Z,95434.80
2018-05-31T22:15:31.331Z,95430.80
2018-05-31T22:17:59.456Z,95422.80
2018-05-31T22:20:27.535Z,95432.12
2018-05-31T22:22:55.565Z,95429.70
2018-05-31T22:25:23.674Z,95441.12
2018-05-31T22:27:51.796Z,95431.09
2018-05-31T22:30:19.770Z,95434.08
2018-05-31T22:32:47.730Z,95432.48
2018-05-31T22:35:15.746Z,95434.73
2018-05-31T22:37:43.760Z,95378.59
2018-05-31T22:40:11.811Z,95427.50
2018-05-31T22:42:39.797Z,95427.66
2018-05-31T22:45:07.831Z,95418.42
2018-05-31T22:47:35.803Z,95423.95
2018-05-31T22:50:03.888Z,95428.22
2018-05-31T22:52:31.926Z,95421.98
2018-05-31T22:54:59.953Z,95408.44
2018-05-31T22:57:28.212Z,95419.23
2018-05-31T22:59:56.235Z,95419.91
2018-05-31T23:02:24.277Z,95419.94
2018-05-31T23:04:52.273Z,95417.38
2018-05-31T23:07:20.315Z,95410.72
2018-05-31T23:09:48.326Z,95418.90
2018-05-31T23:12:16.400Z,95410.66
2018-05-31T23:14:44.345Z,95414.66
2018-05-31T23:17:12.377Z,95367.49
2018-05-31T23:19:40.417Z,95398.22
2018-05-31T23:22:08.507Z,95406.80
2018-05-31T23:24:36.587Z,95405.13
2018-05-31T23:27:04.618Z,95410.50
2018-05-31T23:29:32.629Z,95412.15
2018-05-31T23:32:00.640Z,95409.66
2018-05-31T23:34:28.653Z,95410.09
2018-05-31T23:36:56.682Z,95405.41
2018-05-31T23:39:24.809Z,95396.71
2018-05-31T23:41:52.765Z,95405.98
2018-05-31T23:44:20.754Z,95398.37
2018-05-31T23:46:48.830Z,95400.20
2018-05-31T23:49:16.826Z,95399.14
2018-05-31T23:51:44.811Z,95403.84
2018-05-31T23:54:12.804Z,95403.36
2018-05-31T23:56:40.877Z,95400.42
2018-05-31T23:59:09.208Z,95401.47
